Time;durP1;ratioP1;P1;durP2;ratioP2;P2;SDS_P1;SDS_P2;PMS_P1;PMS_P2;Temp;Humidity;BMP_temperature;BMP_pressure;BME280_temperature;BME280_humidity;BME280_pressure;Samples;Min_cycle;Max_cycle;Signal;HPM_P1;HPM_P2
2021/01/17 00:00:21;;;;;;;28.70;13.40;;;-1.20;99.90;;;;;;5014151;28;20125;-75
2021/01/17 00:02:48;;;;;;;30.58;12.35;;;-1.20;99.90;;;;;;5011568;28;20045;-72
2021/01/17 00:05:26;;;;;;;33.50;13.45;;;-1.20;99.90;;;;;;5013742;28;20049;-72
2021/01/17 00:07:52;;;;;;;32.97;12.80;;;-1.20;99.90;;;;;;5016402;28;20039;-74
2021/01/17 00:10:28;;;;;;;30.45;13.73;;;-1.10;99.90;;;;;;5030141;28;20121;-74
2021/01/17 00:12:55;;;;;;;30.75;13.07;;;-1.10;99.90;;;;;;5015236;28;20044;-74
2021/01/17 00:15:21;;;;;;;32.92;12.38;;;-1.00;99.90;;;;;;5014310;28;20610;-73
2021/01/17 00:17:47;;;;;;;32.25;13.02;;;-1.10;99.90;;;;;;5016211;28;20034;-73
2021/01/17 00:20:17;;;;;;;28.20;12.70;;;-1.10;99.90;;;;;;5013563;28;20572;-74
2021/01/17 00:22:44;;;;;;;28.35;12.75;;;-1.10;99.90;;;;;;5017263;28;20687;-74
2021/01/17 00:25:14;;;;;;;33.42;13.10;;;-1.10;99.90;;;;;;5015631;28;20136;-72
2021/01/17 00:27:40;;;;;;;29.75;12.75;;;-1.10;99.90;;;;;;5016766;28;20038;-74
2021/01/17 00:30:08;;;;;;;36.25;14.23;;;-1.10;99.90;;;;;;5024256;28;20566;-74
2021/01/17 00:32:34;;;;;;;36.60;13.82;;;-1.10;99.90;;;;;;5016938;28;20033;-74
2021/01/17 00:35:01;;;;;;;33.40;13.18;;;-1.10;99.90;;;;;;5017871;28;20131;-74
2021/01/17 00:37:27;;;;;;;29.52;12.57;;;-1.10;99.90;;;;;;5016622;28;20068;-75
2021/01/17 00:39:52;;;;;;;33.58;12.82;;;-1.10;99.90;;;;;;5021512;28;20499;-75
2021/01/17 00:42:18;;;;;;;34.33;14.30;;;-1.10;99.90;;;;;;5035903;28;20087;-75
2021/01/17 00:44:44;;;;;;;35.13;13.30;;;-1.10;99.90;;;;;;5040504;28;20097;-75
2021/01/17 00:47:11;;;;;;;33.50;13.38;;;-1.10;99.90;;;;;;5042763;28;20084;-71
2021/01/17 00:49:36;;;;;;;33.72;13.65;;;-1.10;99.90;;;;;;5043572;28;20029;-76
2021/01/17 00:52:02;;;;;;;38.17;15.20;;;-1.00;99.90;;;;;;5041651;28;20022;-75
2021/01/17 00:54:28;;;;;;;33.33;13.57;;;-1.10;99.90;;;;;;5037939;28;20022;-75
2021/01/17 00:56:53;;;;;;;32.38;12.55;;;-1.10;99.90;;;;;;5046149;28;20092;-76
2021/01/17 00:59:19;;;;;;;33.03;12.60;;;-1.10;99.90;;;;;;5037897;28;20082;-73
2021/01/17 01:01:47;;;;;;;30.35;13.15;;;-1.20;99.90;;;;;;5040778;28;20045;-73
2021/01/17 01:04:16;;;;;;;31.23;13.63;;;-1.20;99.90;;;;;;5034111;28;20056;-73
2021/01/17 01:06:42;;;;;;;32.28;14.35;;;-1.10;99.90;;;;;;5020890;28;20031;-72
2021/01/17 01:09:13;;;;;;;36.47;13.98;;;-1.10;99.90;;;;;;5014423;28;20637;-73
2021/01/17 01:11:39;;;;;;;30.45;13.45;;;-1.10;99.90;;;;;;5018697;28;20025;-73
2021/01/17 01:14:06;;;;;;;35.78;14.13;;;-1.10;99.90;;;;;;5020706;28;20298;-73
2021/01/17 01:16:32;;;;;;;31.67;12.57;;;-1.10;99.90;;;;;;5025506;28;20038;-73
2021/01/17 01:18:58;;;;;;;33.17;13.80;;;-1.10;99.90;;;;;;5012725;28;20034;-73
2021/01/17 01:21:34;;;;;;;33.28;14.52;;;-1.20;99.90;;;;;;5012717;28;20038;-73
2021/01/17 01:24:00;;;;;;;33.83;13.77;;;-1.10;99.90;;;;;;5015457;28;20038;-73
2021/01/17 01:26:26;;;;;;;38.15;15.10;;;-1.20;99.90;;;;;;5012835;28;21130;-73
2021/01/17 01:28:53;;;;;;;43.88;15.82;;;-1.20;99.90;;;;;;5014676;28;20394;-73
2021/01/17 01:31:21;;;;;;;34.30;14.48;;;-1.20;99.90;;;;;;5009900;28;20065;-73
2021/01/17 01:33:48;;;;;;;39.83;14.70;;;-1.30;99.90;;;;;;5016040;28;20506;-73
2021/01/17 01:36:24;;;;;;;36.65;14.45;;;-1.30;99.90;;;;;;5012993;28;20049;-73
2021/01/17 01:38:51;;;;;;;32.75;14.27;;;-1.30;99.90;;;;;;5014235;28;20036;-73
2021/01/17 01:41:17;;;;;;;37.67;15.43;;;-1.30;99.90;;;;;;5011144;28;20049;-74
2021/01/17 01:43:44;;;;;;;36.03;15.20;;;-1.30;99.90;;;;;;5011096;28;20029;-74
2021/01/17 01:46:16;;;;;;;39.28;15.93;;;-1.30;99.90;;;;;;5011428;28;20115;-71
2021/01/17 01:48:44;;;;;;;34.15;14.63;;;-1.30;99.90;;;;;;5014218;28;20041;-74
2021/01/17 01:51:12;;;;;;;41.63;15.07;;;-1.20;99.90;;;;;;5012368;28;20033;-74
2021/01/17 01:53:37;;;;;;;41.03;18.02;;;-1.20;99.90;;;;;;5012674;28;20045;-72
2021/01/17 01:56:03;;;;;;;36.75;15.10;;;-1.20;99.90;;;;;;5011808;28;20038;-73
2021/01/17 01:58:28;;;;;;;42.03;16.58;;;-1.20;99.90;;;;;;5012222;28;20037;-73
2021/01/17 02:00:54;;;;;;;37.88;14.65;;;-1.20;99.90;;;;;;5008940;28;20030;-70
2021/01/17 02:03:20;;;;;;;47.00;17.23;;;-1.20;99.90;;;;;;5010786;28;20176;-73
2021/01/17 02:05:46;;;;;;;41.00;16.90;;;-1.20;99.90;;;;;;5009091;28;20041;-73
2021/01/17 02:08:20;;;;;;;39.35;16.55;;;-1.20;99.90;;;;;;5009796;28;20034;-73
2021/01/17 02:10:47;;;;;;;37.30;16.17;;;-1.20;99.90;;;;;;5013225;28;20022;-73
2021/01/17 02:13:31;;;;;;;39.83;15.85;;;-1.10;99.90;;;;;;5010524;28;20125;-73
2021/01/17 02:15:58;;;;;;;39.25;16.58;;;-1.20;99.90;;;;;;5010906;28;20056;-73
2021/01/17 02:18:24;;;;;;;35.83;15.80;;;-1.30;99.90;;;;;;5012425;28;20042;-73
2021/01/17 02:20:52;;;;;;;44.60;17.58;;;-1.30;99.90;;;;;;5028880;28;20486;-73
2021/01/17 02:23:35;;;;;;;38.67;15.85;;;-1.30;99.90;;;;;;5011437;28;20034;-73
2021/01/17 02:26:01;;;;;;;36.05;16.10;;;-1.30;99.90;;;;;;5011044;28;20025;-74
2021/01/17 02:28:27;;;;;;;36.90;14.30;;;-1.30;99.90;;;;;;5014826;28;20041;-73
2021/01/17 02:30:55;;;;;;;35.10;16.08;;;-1.30;99.90;;;;;;5031236;28;20844;-73
2021/01/17 02:33:33;;;;;;;37.55;15.13;;;-1.30;99.90;;;;;;5014797;28;20438;-73
2021/01/17 02:36:27;;;;;;;32.15;15.27;;;-1.40;99.90;;;;;;5015804;28;20034;-74
2021/01/17 02:39:16;;;;;;;38.58;15.77;;;-1.30;99.90;;;;;;5015857;28;20030;-73
2021/01/17 02:41:56;;;;;;;40.25;17.35;;;-1.30;99.90;;;;;;5018078;28;20034;-73
2021/01/17 02:44:23;;;;;;;37.25;15.77;;;-1.30;99.90;;;;;;5014387;28;20078;-73
2021/01/17 02:46:49;;;;;;;39.83;16.58;;;-1.40;99.90;;;;;;5014841;28;20076;-73
2021/01/17 02:49:14;;;;;;;39.17;17.67;;;-1.30;99.90;;;;;;5018492;28;20502;-73
2021/01/17 02:51:40;;;;;;;38.13;15.52;;;-1.40;99.90;;;;;;5015224;28;20080;-73
2021/01/17 02:54:10;;;;;;;35.25;16.55;;;-1.30;99.90;;;;;;5014824;28;20538;-73
2021/01/17 02:56:41;;;;;;;33.85;15.20;;;-1.30;99.90;;;;;;5014469;28;20038;-73
2021/01/17 02:59:11;;;;;;;44.95;17.30;;;-1.30;99.90;;;;;;5016870;28;20042;-73
2021/01/17 03:01:38;;;;;;;45.53;16.73;;;-1.20;99.90;;;;;;5016561;28;20037;-72
2021/01/17 03:04:20;;;;;;;39.05;16.85;;;-1.20;99.90;;;;;;5014623;28;20760;-72
2021/01/17 03:06:46;;;;;;;41.80;16.90;;;-1.20;99.90;;;;;;5012355;28;20052;-73
2021/01/17 03:09:12;;;;;;;45.25;16.15;;;-1.20;99.90;;;;;;5016858;28;20058;-73
2021/01/17 03:11:37;;;;;;;43.42;17.58;;;-1.20;99.90;;;;;;5019470;28;20045;-74
2021/01/17 03:14:05;;;;;;;44.42;18.48;;;-1.30;99.90;;;;;;5011635;28;20470;-73
2021/01/17 03:16:31;;;;;;;41.33;17.95;;;-1.20;99.90;;;;;;5013442;28;20502;-74
2021/01/17 03:18:57;;;;;;;41.63;16.73;;;-1.20;99.90;;;;;;5013629;28;20042;-74
2021/01/17 03:21:22;;;;;;;45.65;17.15;;;-1.20;99.90;;;;;;5013270;28;20708;-74
2021/01/17 03:23:48;;;;;;;37.72;15.85;;;-1.20;99.90;;;;;;5013518;28;20085;-74
2021/01/17 03:26:13;;;;;;;37.30;16.52;;;-1.20;99.90;;;;;;5010324;28;20047;-75
2021/01/17 03:28:39;;;;;;;37.60;16.50;;;-1.20;99.90;;;;;;5013564;28;20028;-74
2021/01/17 03:31:04;;;;;;;41.33;17.13;;;-1.20;99.90;;;;;;5017082;28;20038;-73
2021/01/17 03:33:30;;;;;;;42.30;17.65;;;-1.20;99.90;;;;;;5016018;28;20042;-73
2021/01/17 03:35:55;;;;;;;39.70;16.85;;;-1.20;99.90;;;;;;5015782;28;20599;-74
2021/01/17 03:38:21;;;;;;;43.13;16.55;;;-1.20;99.90;;;;;;5012922;28;20180;-74
2021/01/17 03:40:46;;;;;;;40.35;17.42;;;-1.20;99.90;;;;;;5014966;28;20080;-74
2021/01/17 03:43:12;;;;;;;39.13;16.88;;;-1.20;99.90;;;;;;5012840;28;20748;-73
2021/01/17 03:45:37;;;;;;;42.22;17.17;;;-1.20;99.90;;;;;;5012669;28;20034;-73
2021/01/17 03:48:03;;;;;;;42.00;17.85;;;-1.20;99.90;;;;;;5016084;28;20124;-74
2021/01/17 03:50:29;;;;;;;40.83;16.73;;;-1.20;99.90;;;;;;5014248;28;20030;-74
2021/01/17 03:52:54;;;;;;;43.50;18.23;;;-1.20;99.90;;;;;;5014192;28;20410;-73
2021/01/17 03:55:20;;;;;;;39.78;16.08;;;-1.20;99.90;;;;;;5013602;28;20037;-73
2021/01/17 03:57:46;;;;;;;43.65;16.85;;;-1.20;99.90;;;;;;5014488;28;20045;-73
2021/01/17 04:00:12;;;;;;;41.50;17.60;;;-1.10;99.90;;;;;;5012231;28;20060;-73
2021/01/17 04:02:37;;;;;;;41.80;17.27;;;-1.10;99.90;;;;;;5014247;28;20044;-73
2021/01/17 04:05:03;;;;;;;46.20;17.75;;;-1.10;99.90;;;;;;5014182;28;20045;-73
2021/01/17 04:07:28;;;;;;;41.72;17.85;;;-1.10;99.90;;;;;;5013942;28;20043;-73
2021/01/17 04:09:54;;;;;;;42.40;16.95;;;-1.00;99.90;;;;;;5015220;28;20038;-74
2021/01/17 04:12:20;;;;;;;41.20;16.92;;;-1.10;99.90;;;;;;5014588;28;20044;-73
2021/01/17 04:14:45;;;;;;;41.15;17.20;;;-1.00;99.90;;;;;;5013014;28;20125;-74
2021/01/17 04:17:10;;;;;;;37.55;16.88;;;-0.90;99.90;;;;;;5014371;28;20048;-73
2021/01/17 04:19:36;;;;;;;43.10;17.27;;;-1.00;99.90;;;;;;5028832;28;20029;-73
2021/01/17 04:22:02;;;;;;;50.55;18.75;;;-1.00;99.90;;;;;;5014296;28;20049;-73
2021/01/17 04:24:27;;;;;;;43.92;17.13;;;-1.00;99.90;;;;;;5011317;28;20049;-73
2021/01/17 04:26:59;;;;;;;44.83;16.83;;;-1.00;99.90;;;;;;5009489;28;20166;-73
2021/01/17 04:29:25;;;;;;;41.13;17.10;;;-1.00;99.90;;;;;;5011211;28;20121;-74
2021/01/17 04:31:51;;;;;;;40.90;17.02;;;-1.00;99.90;;;;;;5010914;28;20165;-74
2021/01/17 04:34:17;;;;;;;44.00;17.75;;;-1.10;99.90;;;;;;5011203;28;20555;-73
2021/01/17 04:36:49;;;;;;;39.25;17.33;;;-1.00;99.90;;;;;;5014841;28;20038;-73
2021/01/17 04:39:15;;;;;;;44.08;18.60;;;-1.00;99.90;;;;;;5014327;28;20150;-73
2021/01/17 04:41:45;;;;;;;38.72;15.88;;;-1.00;99.90;;;;;;5012484;28;20631;-73
2021/01/17 04:44:12;;;;;;;49.88;19.38;;;-1.00;99.90;;;;;;5017436;28;20039;-72
2021/01/17 04:46:39;;;;;;;44.90;18.45;;;-1.00;99.90;;;;;;5015016;28;20034;-74
2021/01/17 04:49:09;;;;;;;47.95;19.60;;;-1.00;99.90;;;;;;5018932;28;20091;-74
2021/01/17 04:51:35;;;;;;;40.83;17.77;;;-0.90;99.90;;;;;;5007802;28;20064;-74
2021/01/17 04:54:04;;;;;;;38.20;18.38;;;-0.90;99.90;;;;;;5010515;28;20123;-74
2021/01/17 04:56:31;;;;;;;47.97;18.98;;;-0.90;99.90;;;;;;5023367;28;20033;-73
2021/01/17 04:59:09;;;;;;;43.72;17.33;;;-0.90;99.90;;;;;;5008486;28;20030;-74
2021/01/17 05:01:51;;;;;;;42.72;18.02;;;-0.90;99.90;;;;;;5010891;28;20037;-74
2021/01/17 05:05:14;;;;;;;48.80;18.80;;;-0.90;99.90;;;;;;5007454;28;20445;-73
2021/01/17 05:07:48;;;;;;;50.10;19.75;;;-0.90;99.90;;;;;;4937416;29;20195;-73
2021/01/17 05:10:22;;;;;;;44.92;17.52;;;-0.90;99.90;;;;;;4935645;28;20043;-73
2021/01/17 05:12:52;;;;;;;45.97;18.35;;;-1.00;99.90;;;;;;4967151;28;20030;-73
2021/01/17 05:15:20;;;;;;;42.67;19.05;;;-1.00;99.90;;;;;;5011797;28;20029;-73
2021/01/17 05:17:45;;;;;;;43.55;18.42;;;-1.00;99.90;;;;;;5013230;28;20034;-74
2021/01/17 05:20:11;;;;;;;48.70;19.02;;;-1.00;99.90;;;;;;5010526;28;20042;-73
2021/01/17 05:22:37;;;;;;;45.42;18.95;;;-0.90;99.90;;;;;;5012100;28;20033;-74
2021/01/17 05:25:05;;;;;;;43.45;19.10;;;-1.00;99.90;;;;;;5010920;28;20072;-73
2021/01/17 05:27:31;;;;;;;42.67;18.08;;;-1.00;99.90;;;;;;5008813;28;20030;-73
2021/01/17 05:29:57;;;;;;;39.95;18.10;;;-1.00;99.90;;;;;;5012117;28;20117;-73
2021/01/17 05:32:24;;;;;;;47.45;18.92;;;-1.00;99.90;;;;;;5009083;28;20046;-73
2021/01/17 05:34:52;;;;;;;43.40;18.10;;;-1.00;99.90;;;;;;5012078;28;20037;-73
2021/01/17 05:37:18;;;;;;;43.42;16.98;;;-0.90;99.90;;;;;;5009420;28;20065;-73
2021/01/17 05:40:00;;;;;;;45.63;18.55;;;-0.90;99.90;;;;;;5027797;28;20132;-73
2021/01/17 05:42:29;;;;;;;45.75;17.98;;;-0.90;99.90;;;;;;5010197;28;20041;-73
2021/01/17 05:44:56;;;;;;;51.80;19.02;;;-0.90;99.90;;;;;;5009714;28;20033;-73
2021/01/17 05:47:23;;;;;;;45.45;17.40;;;-0.80;99.90;;;;;;5011909;28;20364;-73
2021/01/17 05:49:50;;;;;;;50.42;18.58;;;-0.80;99.90;;;;;;5013313;28;20631;-73
2021/01/17 05:52:17;;;;;;;44.88;17.95;;;-0.80;99.90;;;;;;5011413;28;20130;-74
2021/01/17 05:54:49;;;;;;;50.78;18.50;;;-0.80;99.90;;;;;;5009371;28;20025;-73
2021/01/17 05:57:17;;;;;;;46.03;17.92;;;-0.80;99.90;;;;;;5010829;28;20052;-73
2021/01/17 05:59:43;;;;;;;48.30;19.70;;;-0.70;99.90;;;;;;5012944;28;20382;-73
2021/01/17 06:02:20;;;;;;;48.10;19.45;;;-0.70;99.90;;;;;;5009517;28;20041;-73
2021/01/17 06:04:48;;;;;;;51.88;19.48;;;-0.70;99.90;;;;;;5011249;28;20505;-73
2021/01/17 06:07:16;;;;;;;50.90;18.50;;;-0.60;99.90;;;;;;5012422;28;20116;-73
2021/01/17 06:09:43;;;;;;;45.47;18.77;;;-0.60;99.90;;;;;;5017601;28;20555;-73
2021/01/17 06:12:10;;;;;;;49.20;20.92;;;-0.70;99.90;;;;;;5008280;28;20030;-74
2021/01/17 06:14:36;;;;;;;57.47;21.02;;;-0.60;99.90;;;;;;5009848;28;20046;-73
2021/01/17 06:17:03;;;;;;;50.40;20.60;;;-0.60;99.90;;;;;;5009062;28;20034;-74
2021/01/17 06:19:36;;;;;;;48.65;18.85;;;-0.60;99.90;;;;;;5010286;28;20122;-74
2021/01/17 06:22:06;;;;;;;49.60;20.38;;;-0.60;99.90;;;;;;5014137;28;20125;-73
2021/01/17 06:24:41;;;;;;;47.88;19.90;;;-0.60;99.90;;;;;;5011389;28;20128;-73
2021/01/17 06:27:08;;;;;;;54.65;20.08;;;-0.60;99.90;;;;;;5011967;28;20030;-73
2021/01/17 06:29:51;;;;;;;45.15;20.10;;;-0.60;99.90;;;;;;5014022;28;20077;-73
2021/01/17 06:32:19;;;;;;;54.85;19.50;;;-0.60;99.90;;;;;;5008495;28;20506;-73
2021/01/17 06:34:56;;;;;;;46.70;19.90;;;-0.60;99.90;;;;;;5008852;28;20049;-73
2021/01/17 06:37:28;;;;;;;47.13;19.95;;;-0.60;99.90;;;;;;5010614;28;20092;-73
2021/01/17 06:39:58;;;;;;;47.70;19.42;;;-0.60;99.90;;;;;;5006791;28;20074;-73
2021/01/17 06:42:24;;;;;;;47.13;18.58;;;-0.60;99.90;;;;;;5010045;28;20046;-73
2021/01/17 06:44:52;;;;;;;49.17;19.55;;;-0.70;99.90;;;;;;5009348;28;20086;-73
2021/01/17 06:47:25;;;;;;;44.60;19.30;;;-0.70;99.90;;;;;;5007868;28;20065;-73
2021/01/17 06:49:53;;;;;;;53.65;19.90;;;-0.70;99.90;;;;;;5012519;28;20034;-73
2021/01/17 06:52:19;;;;;;;55.67;21.55;;;-0.70;99.90;;;;;;5010197;28;20045;-73
2021/01/17 06:54:52;;;;;;;48.35;20.42;;;-0.70;99.90;;;;;;5009137;28;20041;-73
2021/01/17 06:57:19;;;;;;;50.00;21.60;;;-0.60;99.90;;;;;;5009624;28;20224;-73
2021/01/17 06:59:50;;;;;;;50.53;19.73;;;-0.60;99.90;;;;;;5007585;28;20103;-74
2021/01/17 07:02:24;;;;;;;54.33;20.63;;;-0.60;99.90;;;;;;5010017;28;20703;-73
2021/01/17 07:04:53;;;;;;;50.20;19.60;;;-0.60;99.90;;;;;;5006592;28;20467;-74
2021/01/17 07:07:57;;;;;;;53.95;22.98;;;-0.60;99.90;;;;;;5007590;28;20034;-73
2021/01/17 07:10:24;;;;;;;46.42;16.23;;;-0.50;99.90;;;;;;5010406;28;20037;-74
2021/01/17 07:13:09;;;;;;;51.05;20.30;;;-0.50;99.90;;;;;;5008811;28;20965;-73
2021/01/17 07:15:39;;;;;;;54.47;20.90;;;-0.60;99.90;;;;;;5010287;28;20037;-75
2021/01/17 07:18:13;;;;;;;58.35;22.05;;;-0.50;99.90;;;;;;5014278;28;20045;-73
2021/01/17 07:20:41;;;;;;;59.42;21.10;;;-0.50;99.90;;;;;;5013836;28;20056;-73
2021/01/17 07:23:09;;;;;;;98.85;29.30;;;-0.50;99.90;;;;;;5013745;28;20060;-74
2021/01/17 07:25:38;;;;;;;153.38;34.97;;;-0.50;99.90;;;;;;5013267;28;20441;-74
2021/01/17 07:28:08;;;;;;;64.97;22.77;;;-0.50;99.90;;;;;;5012395;28;20050;-73
2021/01/17 07:30:56;;;;;;;60.33;22.92;;;-0.40;99.90;;;;;;5013752;28;20045;-74
2021/01/17 07:33:27;;;;;;;66.00;22.80;;;-0.40;99.90;;;;;;5015656;28;20061;-73
2021/01/17 07:35:57;;;;;;;78.88;23.38;;;-0.40;99.90;;;;;;5013681;28;20509;-73
2021/01/17 07:38:30;;;;;;;62.00;21.98;;;-0.30;99.90;;;;;;5013190;28;20052;-72
2021/01/17 07:40:59;;;;;;;51.77;20.47;;;-0.30;99.90;;;;;;5010584;28;20037;-73
2021/01/17 07:43:33;;;;;;;67.10;24.48;;;-0.30;99.90;;;;;;5028688;28;20289;-72
2021/01/17 07:46:03;;;;;;;;;;;-0.20;99.90;;;;;;5012096;28;20463;-73
2021/01/17 07:48:30;;;;;;;66.28;22.02;;;-0.20;99.90;;;;;;5015524;28;19913;-73
2021/01/17 07:50:58;;;;;;;58.45;23.40;;;-0.20;99.90;;;;;;5009175;28;20149;-73
2021/01/17 07:53:39;;;;;;;47.70;20.75;;;-0.20;99.90;;;;;;5024842;28;20128;-74
2021/01/17 07:56:14;;;;;;;56.13;22.45;;;-0.30;99.90;;;;;;5008420;28;20025;-72
2021/01/17 07:58:43;;;;;;;60.35;22.52;;;-0.20;99.90;;;;;;5007024;28;20119;-73
2021/01/17 08:01:42;;;;;;;52.55;23.05;;;-0.20;99.90;;;;;;5005163;28;20096;-73
2021/01/17 08:04:09;;;;;;;57.38;22.58;;;-0.20;99.90;;;;;;5009689;28;20061;-73
2021/01/17 08:06:35;;;;;;;49.47;20.42;;;-0.10;99.90;;;;;;5009548;28;20315;-73
2021/01/17 08:09:14;;;;;;;51.40;22.05;;;-0.10;99.90;;;;;;5010021;28;20030;-73
2021/01/17 08:11:40;;;;;;;54.97;23.08;;;-0.10;99.90;;;;;;5008387;28;20037;-75
2021/01/17 08:14:19;;;;;;;49.80;20.83;;;-0.10;99.90;;;;;;5009785;28;20095;-72
2021/01/17 08:17:14;;;;;;;51.22;20.95;;;0.00;99.90;;;;;;5010461;28;20053;-74
2021/01/17 08:19:53;;;;;;;52.95;21.95;;;0.00;99.90;;;;;;5006314;28;20072;-77
2021/01/17 08:22:21;;;;;;;55.75;21.60;;;0.00;99.90;;;;;;5001027;28;20108;-74
2021/01/17 08:25:01;;;;;;;54.53;21.80;;;0.10;99.90;;;;;;5010054;28;20061;-77
2021/01/17 08:27:30;;;;;;;53.63;21.90;;;0.20;99.90;;;;;;5011500;28;20149;-74
2021/01/17 08:30:07;;;;;;;53.95;21.33;;;0.20;99.90;;;;;;5008123;28;20038;-74
2021/01/17 08:32:38;;;;;;;53.28;22.10;;;0.30;99.90;;;;;;5018282;28;20038;-74
2021/01/17 08:35:10;;;;;;;53.47;22.63;;;0.40;99.90;;;;;;5019419;28;20120;-73
2021/01/17 08:37:39;;;;;;;55.70;21.70;;;0.30;99.90;;;;;;5010814;28;20041;-74
2021/01/17 08:40:06;;;;;;;50.03;21.27;;;0.40;99.90;;;;;;5010445;28;20042;-73
2021/01/17 08:42:34;;;;;;;53.28;23.10;;;0.40;99.90;;;;;;5020996;28;20037;-73
2021/01/17 08:45:02;;;;;;;61.10;24.27;;;0.40;99.90;;;;;;4998417;28;20041;-74
2021/01/17 08:47:33;;;;;;;56.95;23.20;;;0.50;99.90;;;;;;5003369;28;20072;-77
2021/01/17 08:49:59;;;;;;;61.58;21.67;;;0.40;99.90;;;;;;5008509;28;20045;-76
2021/01/17 08:52:26;;;;;;;52.33;22.25;;;0.50;99.90;;;;;;5018898;28;20050;-76
2021/01/17 08:54:52;;;;;;;57.33;23.52;;;0.50;99.90;;;;;;5008323;28;20687;-77
2021/01/17 08:57:44;;;;;;;53.33;21.60;;;0.50;99.90;;;;;;5006367;28;20100;-77
2021/01/17 09:00:14;;;;;;;55.00;21.15;;;0.60;99.90;;;;;;5007118;28;20040;-78
2021/01/17 09:02:40;;;;;;;55.88;23.60;;;0.70;99.90;;;;;;5007726;28;20058;-75
2021/01/17 09:05:17;;;;;;;52.90;23.92;;;0.70;99.90;;;;;;5005202;28;20040;-77
2021/01/17 09:07:44;;;;;;;64.95;25.17;;;0.80;99.90;;;;;;5006821;28;20861;-76
2021/01/17 09:10:14;;;;;;;61.10;22.42;;;0.80;99.90;;;;;;5009977;28;20034;-76
2021/01/17 09:12:40;;;;;;;56.60;22.02;;;0.80;99.90;;;;;;5008697;28;20034;-79
2021/01/17 09:15:19;;;;;;;64.55;23.38;;;0.80;99.90;;;;;;5001616;28;20089;-73
2021/01/17 09:17:59;;;;;;;60.22;24.10;;;0.80;99.90;;;;;;4998279;28;20061;-73
2021/01/17 09:20:26;;;;;;;63.25;23.08;;;0.80;99.90;;;;;;4995584;28;20129;-73
2021/01/17 09:22:55;;;;;;;54.22;23.38;;;0.90;99.90;;;;;;5000563;28;20068;-73
2021/01/17 09:25:22;;;;;;;55.72;23.20;;;0.90;99.90;;;;;;4997908;28;20041;-73
2021/01/17 09:27:50;;;;;;;62.55;25.05;;;1.00;99.90;;;;;;4999543;28;20049;-73
2021/01/17 09:30:16;;;;;;;52.80;23.95;;;1.00;99.90;;;;;;4998775;28;20145;-73
2021/01/17 09:32:43;;;;;;;52.85;22.35;;;1.10;99.90;;;;;;5017894;28;20124;-73
2021/01/17 09:35:09;;;;;;;58.50;24.05;;;1.20;99.90;;;;;;5001640;28;20092;-73
2021/01/17 09:37:35;;;;;;;57.80;22.98;;;1.30;99.90;;;;;;5003085;28;20053;-73
2021/01/17 09:40:01;;;;;;;56.38;21.85;;;1.10;99.90;;;;;;5017471;28;20411;-73
2021/01/17 09:42:27;;;;;;;54.25;22.92;;;1.10;99.90;;;;;;5012983;28;20035;-73
2021/01/17 09:45:00;;;;;;;55.03;23.58;;;1.20;99.90;;;;;;5013393;28;20057;-73
2021/01/17 09:47:27;;;;;;;54.30;22.75;;;1.40;99.90;;;;;;5004389;28;20475;-73
2021/01/17 09:49:54;;;;;;;48.95;20.15;;;1.40;99.90;;;;;;5005245;28;20069;-74
2021/01/17 09:52:24;;;;;;;52.90;22.45;;;1.50;99.90;;;;;;5003083;28;20117;-73
2021/01/17 09:54:52;;;;;;;48.45;21.60;;;1.30;99.90;;;;;;5000048;28;20121;-76
2021/01/17 09:57:19;;;;;;;56.38;22.80;;;1.40;99.90;;;;;;5000348;28;20048;-73
2021/01/17 09:59:45;;;;;;;51.55;21.20;;;1.30;99.90;;;;;;4998773;28;20121;-73
2021/01/17 10:02:11;;;;;;;53.25;21.65;;;1.20;99.90;;;;;;4993348;28;20038;-73
2021/01/17 10:04:39;;;;;;;52.63;21.38;;;1.20;99.90;;;;;;5013262;28;20049;-72
2021/01/17 10:07:05;;;;;;;49.95;20.27;;;1.20;99.90;;;;;;5015418;28;20038;-73
2021/01/17 10:09:33;;;;;;;52.03;21.98;;;1.20;99.90;;;;;;5020969;28;20040;-73
2021/01/17 10:12:01;;;;;;;47.47;20.33;;;1.30;99.90;;;;;;5025995;28;20120;-73
2021/01/17 10:14:35;;;;;;;54.58;22.55;;;1.40;99.90;;;;;;5017139;28;20065;-73
2021/01/17 10:17:05;;;;;;;57.05;22.92;;;1.50;99.90;;;;;;5004637;28;20434;-74
2021/01/17 10:19:35;;;;;;;49.53;21.33;;;1.60;99.90;;;;;;5006930;28;20442;-74
2021/01/17 10:22:03;;;;;;;49.83;21.58;;;1.70;99.90;;;;;;4994546;28;20042;-73
2021/01/17 10:24:31;;;;;;;51.22;20.88;;;1.80;99.90;;;;;;5001784;28;20057;-74
2021/01/17 10:26:59;;;;;;;53.15;22.02;;;1.70;99.90;;;;;;4998910;28;20037;-73
2021/01/17 10:29:30;;;;;;;49.03;23.05;;;1.80;99.90;;;;;;4999931;28;20128;-77
2021/01/17 10:31:59;;;;;;;50.70;21.23;;;1.70;99.90;;;;;;5009161;28;20459;-80
2021/01/17 10:34:27;;;;;;;51.30;22.40;;;1.70;99.90;;;;;;4998668;28;20038;-74
2021/01/17 10:36:58;;;;;;;44.67;19.92;;;1.50;99.90;;;;;;5001905;28;20045;-74
2021/01/17 10:39:24;;;;;;;44.15;19.60;;;1.50;99.90;;;;;;5000308;28;20482;-76
2021/01/17 10:41:53;;;;;;;48.90;19.83;;;1.50;99.90;;;;;;5001539;28;20479;-76
2021/01/17 10:44:25;;;;;;;48.63;20.83;;;1.50;99.90;;;;;;5000857;28;20053;-78
2021/01/17 10:47:01;;;;;;;47.67;21.20;;;1.40;99.90;;;;;;4999470;28;20033;-75
2021/01/17 10:49:33;;;;;;;58.65;21.48;;;1.60;99.90;;;;;;5015482;28;20104;-79
2021/01/17 10:52:04;;;;;;;49.38;21.98;;;1.60;99.90;;;;;;4996903;28;20034;-76
2021/01/17 10:54:33;;;;;;;51.65;20.08;;;1.70;99.90;;;;;;5002221;28;20573;-75
2021/01/17 10:57:03;;;;;;;50.30;22.00;;;1.80;99.90;;;;;;4989507;28;20042;-74
2021/01/17 10:59:31;;;;;;;46.58;19.10;;;1.90;99.90;;;;;;4992303;28;20616;-74
2021/01/17 11:01:57;;;;;;;43.80;18.92;;;2.00;99.90;;;;;;4990837;28;20045;-74
2021/01/17 11:04:22;;;;;;;47.53;20.27;;;2.00;99.90;;;;;;4997143;28;20137;-74
2021/01/17 11:06:48;;;;;;;50.78;21.15;;;1.90;99.90;;;;;;4993322;28;20042;-76
2021/01/17 11:09:17;;;;;;;44.95;19.05;;;2.00;99.90;;;;;;4993946;28;20052;-75
2021/01/17 11:11:47;;;;;;;47.95;18.35;;;1.90;99.90;;;;;;4991900;28;20033;-74
2021/01/17 11:14:13;;;;;;;49.65;19.58;;;1.90;99.90;;;;;;4991641;28;20344;-75
2021/01/17 11:16:42;;;;;;;43.50;18.30;;;1.90;99.90;;;;;;4994170;28;20045;-75
2021/01/17 11:19:10;;;;;;;43.38;18.63;;;1.80;99.90;;;;;;4992542;28;20099;-75
2021/01/17 11:21:35;;;;;;;47.20;18.58;;;1.90;99.90;;;;;;4991823;28;20038;-75
2021/01/17 11:24:01;;;;;;;40.50;19.02;;;1.80;99.90;;;;;;4995084;28;20041;-75
2021/01/17 11:26:27;;;;;;;41.70;17.48;;;1.80;99.90;;;;;;4992276;28;20030;-77
2021/01/17 11:29:01;;;;;;;42.40;18.88;;;1.90;99.90;;;;;;4995091;28;20397;-74
2021/01/17 11:31:27;;;;;;;38.05;16.33;;;1.80;99.90;;;;;;5005101;28;20049;-78
2021/01/17 11:33:54;;;;;;;39.00;17.80;;;1.70;99.90;;;;;;4992637;28;20038;-80
2021/01/17 11:36:24;;;;;;;40.67;18.05;;;1.60;99.90;;;;;;4996490;28;20042;-76
2021/01/17 11:38:58;;;;;;;40.22;16.48;;;1.70;99.90;;;;;;4999791;28;20278;-75
2021/01/17 11:41:31;;;;;;;;;;;1.60;99.90;;;;;;4996798;28;20046;-76
2021/01/17 11:44:33;;;;;;;45.80;17.10;;;1.60;99.90;;;;;;4998942;28;20593;-77
2021/01/17 11:47:01;;;;;;;45.67;19.25;;;1.60;99.90;;;;;;4978827;28;20603;-77
2021/01/17 11:49:28;;;;;;;47.10;20.33;;;1.50;99.90;;;;;;5000847;28;20044;-74
2021/01/17 11:51:55;;;;;;;53.92;22.23;;;1.50;99.90;;;;;;5011515;28;20042;-76
2021/01/17 11:54:26;;;;;;;60.45;24.08;;;1.50;99.90;;;;;;5018705;28;20037;-75
2021/01/17 11:57:03;;;;;;;59.17;23.40;;;1.50;99.90;;;;;;5021774;28;20045;-75
2021/01/17 11:59:30;;;;;;;60.63;22.88;;;1.60;99.90;;;;;;5016146;28;20072;-76
2021/01/17 12:01:56;;;;;;;47.42;21.85;;;1.60;99.90;;;;;;5003348;28;20099;-75
2021/01/17 12:04:26;;;;;;;51.40;21.20;;;1.60;99.90;;;;;;4999232;28;20970;-74
2021/01/17 12:07:06;;;;;;;51.85;21.98;;;1.60;99.90;;;;;;4994772;28;20521;-74
2021/01/17 12:09:32;;;;;;;58.00;22.67;;;1.60;99.90;;;;;;4991345;28;20037;-75
2021/01/17 12:12:10;;;;;;;48.10;21.15;;;1.60;99.90;;;;;;4996642;28;20132;-74
2021/01/17 12:14:35;;;;;;;55.15;23.85;;;1.70;99.90;;;;;;4999933;28;20041;-76
2021/01/17 12:17:01;;;;;;;56.88;22.92;;;1.70;99.90;;;;;;4993968;28;20298;-74
2021/01/17 12:19:27;;;;;;;56.67;22.73;;;1.80;99.90;;;;;;4992985;28;20582;-75
2021/01/17 12:21:55;;;;;;;56.08;24.27;;;1.80;99.90;;;;;;5009413;28;20981;-74
2021/01/17 12:24:20;;;;;;;52.70;22.65;;;1.80;99.90;;;;;;4994312;28;20520;-75
2021/01/17 12:26:47;;;;;;;39.67;18.55;;;1.80;99.90;;;;;;4994190;28;20112;-74
2021/01/17 12:29:14;;;;;;;28.65;12.88;;;1.80;99.90;;;;;;4994289;28;20041;-75
2021/01/17 12:31:40;;;;;;;26.65;12.07;;;1.80;99.90;;;;;;4992322;28;20046;-74
2021/01/17 12:34:07;;;;;;;32.28;13.93;;;1.80;99.90;;;;;;4992491;28;20046;-74
2021/01/17 12:36:34;;;;;;;29.27;12.75;;;1.80;99.90;;;;;;4992838;28;20054;-75
2021/01/17 12:39:02;;;;;;;30.63;12.85;;;1.80;99.90;;;;;;4994298;28;20034;-74
2021/01/17 12:41:29;;;;;;;28.23;11.65;;;1.80;99.90;;;;;;4992595;28;20132;-74